sensor_id;sensor_type;location;lat;lon;timestamp;pressure;altitude;pressure_sealevel;temperature;humidity
59104;BME280;51449;51.676;5.812;2023-04-08T00:02:05;102159.59;;;9.62;85.61
59104;BME280;51449;51.676;5.812;2023-04-08T00:04:27;102162.34;;;9.62;85.50
59104;BME280;51449;51.676;5.812;2023-04-08T00:06:49;102160.72;;;9.61;85.56
59104;BME280;51449;51.676;5.812;2023-04-08T00:09:11;102167.84;;;9.62;85.81
59104;BME280;51449;51.676;5.812;2023-04-08T00:11:33;102168.13;;;9.60;85.40
59104;BME280;51449;51.676;5.812;2023-04-08T00:13:55;102171.13;;;9.64;85.31
59104;BME280;51449;51.676;5.812;2023-04-08T00:16:16;102168.38;;;9.64;85.52
59104;BME280;51449;51.676;5.812;2023-04-08T00:18:38;102165.31;;;9.65;85.59
59104;BME280;51449;51.676;5.812;2023-04-08T00:21:00;102166.16;;;9.66;85.56
59104;BME280;51449;51.676;5.812;2023-04-08T00:23:22;102162.28;;;9.67;85.07
59104;BME280;51449;51.676;5.812;2023-04-08T00:25:43;102167.78;;;9.67;85.48
59104;BME280;51449;51.676;5.812;2023-04-08T00:28:05;102166.16;;;9.66;85.34
59104;BME280;51449;51.676;5.812;2023-04-08T00:30:28;102165.31;;;9.65;85.64
59104;BME280;51449;51.676;5.812;2023-04-08T00:32:51;102172.75;;;9.65;85.25
59104;BME280;51449;51.676;5.812;2023-04-08T00:35:13;102169.72;;;9.67;85.17
59104;BME280;51449;51.676;5.812;2023-04-08T00:37:35;102167.25;;;9.65;85.23
59104;BME280;51449;51.676;5.812;2023-04-08T00:39:57;102166.16;;;9.66;85.36
59104;BME280;51449;51.676;5.812;2023-04-08T00:42:19;102171.66;;;9.66;85.20
59104;BME280;51449;51.676;5.812;2023-04-08T00:44:42;102174.94;;;9.68;85.32
59104;BME280;51449;51.676;5.812;2023-04-08T00:47:04;102172.19;;;9.68;85.34
59104;BME280;51449;51.676;5.812;2023-04-08T00:49:26;102183.13;;;9.73;85.03
59104;BME280;51449;51.676;5.812;2023-04-08T00:51:48;102182.81;;;9.75;85.29
59104;BME280;51449;51.676;5.812;2023-04-08T00:54:10;102183.63;;;9.75;84.73
59104;BME280;51449;51.676;5.812;2023-04-08T00:56:32;102178.97;;;9.76;85.37
59104;BME280;51449;51.676;5.812;2023-04-08T00:58:54;102179.25;;;9.74;84.97
59104;BME280;51449;51.676;5.812;2023-04-08T01:01:43;102187.50;;;9.74;85.07
59104;BME280;51449;51.676;5.812;2023-04-08T01:04:32;102190.25;;;9.74;85.04
59104;BME280;51449;51.676;5.812;2023-04-08T01:10:04;102193.59;;;9.71;84.97
59104;BME280;51449;51.676;5.812;2023-04-08T01:12:39;102188.09;;;9.71;84.82
59104;BME280;51449;51.676;5.812;2023-04-08T01:15:06;102188.09;;;9.71;84.97
59104;BME280;51449;51.676;5.812;2023-04-08T01:17:30;102188.09;;;9.71;85.17
59104;BME280;51449;51.676;5.812;2023-04-08T01:19:53;102183.69;;;9.70;84.83
59104;BME280;51449;51.676;5.812;2023-04-08T01:25:00;102182.59;;;9.71;84.63
59104;BME280;51449;51.676;5.812;2023-04-08T01:27:29;102184.22;;;9.72;84.61
59104;BME280;51449;51.676;5.812;2023-04-08T01:29:54;102185.03;;;9.73;84.78
59104;BME280;51449;51.676;5.812;2023-04-08T01:32:19;102185.56;;;9.75;84.44
59104;BME280;51449;51.676;5.812;2023-04-08T01:34:41;102191.06;;;9.75;84.62
59104;BME280;51449;51.676;5.812;2023-04-08T01:37:06;102195.16;;;9.77;84.33
59104;BME280;51449;51.676;5.812;2023-04-08T01:39:29;102194.59;;;9.80;84.44
59104;BME280;51449;51.676;5.812;2023-04-08T01:41:52;102199.78;;;9.82;84.15
59104;BME280;51449;51.676;5.812;2023-04-08T01:44:18;102193.47;;;9.81;84.28
59104;BME280;51449;51.676;5.812;2023-04-08T01:46:42;102197.03;;;9.82;84.25
59104;BME280;51449;51.676;5.812;2023-04-08T01:49:06;102195.63;;;9.84;83.83
59104;BME280;51449;51.676;5.812;2023-04-08T01:51:29;102202.78;;;9.85;83.74
59104;BME280;51449;51.676;5.812;2023-04-08T01:53:53;102202.78;;;9.85;83.82
59104;BME280;51449;51.676;5.812;2023-04-08T01:56:15;102207.44;;;9.85;83.68
59104;BME280;51449;51.676;5.812;2023-04-08T01:58:41;102203.34;;;9.82;83.67
59104;BME280;51449;51.676;5.812;2023-04-08T02:01:10;102203.41;;;9.77;83.45
59104;BME280;51449;51.676;5.812;2023-04-08T02:03:35;102203.47;;;9.72;83.27
59104;BME280;51449;51.676;5.812;2023-04-08T02:05:58;102202.94;;;9.70;83.41
59104;BME280;51449;51.676;5.812;2023-04-08T02:08:20;102197.44;;;9.70;83.38
59104;BME280;51449;51.676;5.812;2023-04-08T02:10:41;102195.00;;;9.69;83.30
59104;BME280;51449;51.676;5.812;2023-04-08T02:13:03;102192.47;;;9.72;83.29
59104;BME280;51449;51.676;5.812;2023-04-08T02:15:27;102200.72;;;9.72;83.38
59104;BME280;51449;51.676;5.812;2023-04-08T02:17:59;102203.47;;;9.72;83.17
59104;BME280;51449;51.676;5.812;2023-04-08T02:20:43;102205.94;;;9.74;83.20
59104;BME280;51449;51.676;5.812;2023-04-08T02:23:18;102212.28;;;9.74;83.17
59104;BME280;51449;51.676;5.812;2023-04-08T02:25:43;102204.28;;;9.73;83.23
59104;BME280;51449;51.676;5.812;2023-04-08T02:28:09;102206.56;;;9.71;83.00
59104;BME280;51449;51.676;5.812;2023-04-08T02:30:33;102205.22;;;9.68;82.94
59104;BME280;51449;51.676;5.812;2023-04-08T02:32:57;102206.31;;;9.67;83.03
59104;BME280;51449;51.676;5.812;2023-04-08T02:35:24;102212.94;;;9.66;82.55
59104;BME280;51449;51.676;5.812;2023-04-08T02:37:48;102209.66;;;9.64;82.92
59104;BME280;51449;51.676;5.812;2023-04-08T02:42:46;102220.13;;;9.62;83.03
59104;BME280;51449;51.676;5.812;2023-04-08T02:45:08;102213.50;;;9.63;82.95
59104;BME280;51449;51.676;5.812;2023-04-08T02:47:30;102213.50;;;9.63;82.77
59104;BME280;51449;51.676;5.812;2023-04-08T02:49:53;102209.13;;;9.62;82.78
59104;BME280;51449;51.676;5.812;2023-04-08T02:52:15;102211.88;;;9.62;82.74
59104;BME280;51449;51.676;5.812;2023-04-08T02:54:37;102216.03;;;9.59;82.68
59104;BME280;51449;51.676;5.812;2023-04-08T02:56:59;102213.56;;;9.58;82.54
59104;BME280;51449;51.676;5.812;2023-04-08T02:59:21;102208.38;;;9.56;82.37
59104;BME280;51449;51.676;5.812;2023-04-08T03:01:42;102213.34;;;9.54;82.47
59104;BME280;51449;51.676;5.812;2023-04-08T03:04:04;102221.88;;;9.53;82.59
59104;BME280;51449;51.676;5.812;2023-04-08T03:06:26;102216.16;;;9.49;82.60
59104;BME280;51449;51.676;5.812;2023-04-08T03:08:48;102220.31;;;9.47;82.39
59104;BME280;51449;51.676;5.812;2023-04-08T03:11:10;102218.13;;;9.43;82.13
59104;BME280;51449;51.676;5.812;2023-04-08T03:13:32;102215.97;;;9.40;82.42
59104;BME280;51449;51.676;5.812;2023-04-08T03:15:54;102213.25;;;9.35;81.92
59104;BME280;51449;51.676;5.812;2023-04-08T03:18:16;102220.44;;;9.31;82.06
59104;BME280;51449;51.676;5.812;2023-04-08T03:20:38;102219.97;;;9.24;82.04
59104;BME280;51449;51.676;5.812;2023-04-08T03:22:59;102218.66;;;9.16;81.97
59104;BME280;51449;51.676;5.812;2023-04-08T03:25:21;102221.78;;;9.10;82.10
59104;BME280;51449;51.676;5.812;2023-04-08T03:27:43;102225.09;;;9.07;82.44
59104;BME280;51449;51.676;5.812;2023-04-08T03:30:06;102215.75;;;9.08;82.52
59104;BME280;51449;51.676;5.812;2023-04-08T03:32:28;102225.09;;;9.07;82.27
59104;BME280;51449;51.676;5.812;2023-04-08T03:34:50;102223.47;;;9.06;82.36
59104;BME280;51449;51.676;5.812;2023-04-08T03:37:11;102221.00;;;9.04;82.09
59104;BME280;51449;51.676;5.812;2023-04-08T03:39:33;102231.97;;;9.04;82.09
59104;BME280;51449;51.676;5.812;2023-04-08T03:41:55;102233.91;;;9.04;82.30
59104;BME280;51449;51.676;5.812;2023-04-08T03:44:17;102236.13;;;9.02;82.48
59104;BME280;51449;51.676;5.812;2023-04-08T03:46:39;102237.25;;;9.00;82.06
59104;BME280;51449;51.676;5.812;2023-04-08T03:49:00;102229.06;;;8.95;81.94
59104;BME280;51449;51.676;5.812;2023-04-08T03:51:22;102239.25;;;8.95;82.41
59104;BME280;51449;51.676;5.812;2023-04-08T03:53:44;102238.38;;;8.94;82.46
59104;BME280;51449;51.676;5.812;2023-04-08T03:56:06;102237.31;;;8.95;82.43
59104;BME280;51449;51.676;5.812;2023-04-08T03:58:28;102238.94;;;8.96;82.51
59104;BME280;51449;51.676;5.812;2023-04-08T04:00:49;102239.47;;;8.98;82.13
59104;BME280;51449;51.676;5.812;2023-04-08T04:03:11;102235.59;;;8.99;82.22
59104;BME280;51449;51.676;5.812;2023-04-08T04:05:33;102234.25;;;8.97;82.01
59104;BME280;51449;51.676;5.812;2023-04-08T04:07:55;102246.63;;;8.94;82.25
59104;BME280;51449;51.676;5.812;2023-04-08T04:10:18;102249.16;;;8.91;82.02
59104;BME280;51449;51.676;5.812;2023-04-08T04:12:40;102244.25;;;8.88;82.60
59104;BME280;51449;51.676;5.812;2023-04-08T04:15:02;102252.50;;;8.83;82.58
59104;BME280;51449;51.676;5.812;2023-04-08T04:17:25;102253.06;;;8.79;82.77
59104;BME280;51449;51.676;5.812;2023-04-08T04:19:47;102253.94;;;8.75;82.61
59104;BME280;51449;51.676;5.812;2023-04-08T04:22:09;102260.56;;;8.74;82.58
59104;BME280;51449;51.676;5.812;2023-04-08T04:24:30;102264.38;;;8.73;82.65
59104;BME280;51449;51.676;5.812;2023-04-08T04:26:52;102262.75;;;8.72;83.10
59104;BME280;51449;51.676;5.812;2023-04-08T04:29:14;102266.91;;;8.69;82.99
59104;BME280;51449;51.676;5.812;2023-04-08T04:31:36;102266.34;;;8.67;82.88
59104;BME280;51449;51.676;5.812;2023-04-08T04:33:57;102273.25;;;8.65;83.22
59104;BME280;51449;51.676;5.812;2023-04-08T04:36:19;102277.13;;;8.64;83.04
59104;BME280;51449;51.676;5.812;2023-04-08T04:38:41;102279.84;;;8.64;83.62
59104;BME280;51449;51.676;5.812;2023-04-08T04:41:03;102275.75;;;8.61;83.17
59104;BME280;51449;51.676;5.812;2023-04-08T04:43:25;102278.22;;;8.57;83.67
59104;BME280;51449;51.676;5.812;2023-04-08T04:45:46;102275.50;;;8.57;83.78
59104;BME280;51449;51.676;5.812;2023-04-08T04:48:08;102289.22;;;8.57;83.78
59104;BME280;51449;51.676;5.812;2023-04-08T04:50:30;102290.88;;;8.59;84.00
59104;BME280;51449;51.676;5.812;2023-04-08T04:52:52;102285.66;;;8.57;84.04
59104;BME280;51449;51.676;5.812;2023-04-08T04:55:13;102289.22;;;8.57;83.56
59104;BME280;51449;51.676;5.812;2023-04-08T04:57:36;102293.09;;;8.56;84.17
59104;BME280;51449;51.676;5.812;2023-04-08T04:59:58;102288.41;;;8.57;84.21
59104;BME280;51449;51.676;5.812;2023-04-08T05:02:19;102285.66;;;8.57;83.97
59104;BME280;51449;51.676;5.812;2023-04-08T05:04:41;102283.72;;;8.57;84.07
59104;BME280;51449;51.676;5.812;2023-04-08T05:07:03;102287.28;;;8.58;84.40
59104;BME280;51449;51.676;5.812;2023-04-08T05:09:25;102293.91;;;8.57;84.41
59104;BME280;51449;51.676;5.812;2023-04-08T05:11:47;102301.59;;;8.55;84.42
59104;BME280;51449;51.676;5.812;2023-04-08T05:14:09;102303.53;;;8.54;84.61
59104;BME280;51449;51.676;5.812;2023-04-08T05:16:31;102305.16;;;8.55;84.94
59104;BME280;51449;51.676;5.812;2023-04-08T05:18:54;102304.63;;;8.59;84.87
59104;BME280;51449;51.676;5.812;2023-04-08T05:21:15;102315.31;;;8.60;85.00
59104;BME280;51449;51.676;5.812;2023-04-08T05:23:37;102312.84;;;8.59;84.91
59104;BME280;51449;51.676;5.812;2023-04-08T05:25:59;102321.09;;;8.59;84.91
59104;BME280;51449;51.676;5.812;2023-04-08T05:28:21;102317.50;;;8.58;84.79
59104;BME280;51449;51.676;5.812;2023-04-08T05:30:48;102324.13;;;8.57;84.82
59104;BME280;51449;51.676;5.812;2023-04-08T05:33:11;102322.50;;;8.51;85.17
59104;BME280;51449;51.676;5.812;2023-04-08T05:35:34;102329.69;;;8.47;85.10
59104;BME280;51449;51.676;5.812;2023-04-08T05:37:57;102336.28;;;8.41;84.88
59104;BME280;51449;51.676;5.812;2023-04-08T05:40:21;102333.84;;;8.34;84.93
59104;BME280;51449;51.676;5.812;2023-04-08T05:42:42;102337.13;;;8.26;85.11
59104;BME280;51449;51.676;5.812;2023-04-08T05:45:05;102330.03;;;8.20;84.84
59104;BME280;51449;51.676;5.812;2023-04-08T05:47:27;102337.19;;;8.15;85.22
59104;BME280;51449;51.676;5.812;2023-04-08T05:49:49;102338.84;;;8.11;84.82
59104;BME280;51449;51.676;5.812;2023-04-08T05:52:11;102338.31;;;8.04;85.26
59104;BME280;51449;51.676;5.812;2023-04-08T05:54:33;102347.38;;;8.00;85.20
59104;BME280;51449;51.676;5.812;2023-04-08T05:56:55;102347.94;;;7.97;85.27
59104;BME280;51449;51.676;5.812;2023-04-08T05:59:17;102346.56;;;7.94;85.60
59104;BME280;51449;51.676;5.812;2023-04-08T06:01:39;102352.06;;;7.94;85.62
59104;BME280;51449;51.676;5.812;2023-04-08T06:04:01;102357.03;;;7.87;85.34
59104;BME280;51449;51.676;5.812;2023-04-08T06:06:23;102358.41;;;7.79;85.16
59104;BME280;51449;51.676;5.812;2023-04-08T06:08:46;102355.13;;;7.72;84.70
59104;BME280;51449;51.676;5.812;2023-04-08T06:11:09;102351.03;;;7.69;85.28
59104;BME280;51449;51.676;5.812;2023-04-08T06:13:31;102358.16;;;7.65;85.31
59104;BME280;51449;51.676;5.812;2023-04-08T06:15:53;102364.19;;;7.62;85.39
59104;BME280;51449;51.676;5.812;2023-04-08T06:18:15;102363.09;;;7.58;85.14
59104;BME280;51449;51.676;5.812;2023-04-08T06:20:38;102364.22;;;7.52;85.41
59104;BME280;51449;51.676;5.812;2023-04-08T06:22:59;102378.19;;;7.50;85.22
59104;BME280;51449;51.676;5.812;2023-04-08T06:25:21;102373.53;;;7.51;85.27
59104;BME280;51449;51.676;5.812;2023-04-08T06:27:43;102376.56;;;7.49;85.52
59104;BME280;51449;51.676;5.812;2023-04-08T06:30:05;102377.63;;;7.48;85.37
59104;BME280;51449;51.676;5.812;2023-04-08T06:32:28;102382.84;;;7.45;85.83
59104;BME280;51449;51.676;5.812;2023-04-08T06:34:50;102381.50;;;7.42;85.59
59104;BME280;51449;51.676;5.812;2023-04-08T06:37:11;102382.03;;;7.44;85.76
59104;BME280;51449;51.676;5.812;2023-04-08T06:39:33;102384.22;;;7.47;85.67
59104;BME280;51449;51.676;5.812;2023-04-08T06:41:55;102383.97;;;7.49;85.78
59104;BME280;51449;51.676;5.812;2023-04-08T06:44:41;102387.78;;;7.48;86.12
59104;BME280;51449;51.676;5.812;2023-04-08T06:47:04;102380.13;;;7.45;86.07
59104;BME280;51449;51.676;5.812;2023-04-08T06:49:26;102389.44;;;7.44;85.36
59104;BME280;51449;51.676;5.812;2023-04-08T06:51:48;102398.75;;;7.48;85.84
59104;BME280;51449;51.676;5.812;2023-04-08T06:54:10;102398.22;;;7.51;85.43
59104;BME280;51449;51.676;5.812;2023-04-08T06:56:32;102402.34;;;7.54;86.16
59104;BME280;51449;51.676;5.812;2023-04-08T06:58:54;102410.84;;;7.52;84.93
59104;BME280;51449;51.676;5.812;2023-04-08T07:01:17;102410.53;;;7.48;85.24
59104;BME280;51449;51.676;5.812;2023-04-08T07:03:39;102406.72;;;7.44;84.90
59104;BME280;51449;51.676;5.812;2023-04-08T07:06:02;102412.19;;;7.39;84.60
59104;BME280;51449;51.676;5.812;2023-04-08T07:08:24;102415.75;;;7.35;84.49
59104;BME280;51449;51.676;5.812;2023-04-08T07:10:46;102419.06;;;7.32;84.43
59104;BME280;51449;51.676;5.812;2023-04-08T07:13:09;102420.13;;;7.31;84.75
59104;BME280;51449;51.676;5.812;2023-04-08T07:15:31;102420.94;;;7.26;84.36
59104;BME280;51449;51.676;5.812;2023-04-08T07:17:53;102426.16;;;7.27;84.77
59104;BME280;51449;51.676;5.812;2023-04-08T07:20:19;102433.56;;;7.27;85.17
59104;BME280;51449;51.676;5.812;2023-04-08T07:22:41;102429.47;;;7.24;84.32
59104;BME280;51449;51.676;5.812;2023-04-08T07:25:03;102438.75;;;7.23;84.34
59104;BME280;51449;51.676;5.812;2023-04-08T07:27:25;102441.50;;;7.23;84.29
59104;BME280;51449;51.676;5.812;2023-04-08T07:29:51;102448.66;;;7.24;84.19
59104;BME280;51449;51.676;5.812;2023-04-08T07:32:14;102444.53;;;7.22;84.69
59104;BME280;51449;51.676;5.812;2023-04-08T07:34:36;102451.91;;;7.21;84.46
59104;BME280;51449;51.676;5.812;2023-04-08T07:36:58;102453.84;;;7.21;84.52
59104;BME280;51449;51.676;5.812;2023-04-08T07:39:21;102452.78;;;7.27;84.68
59104;BME280;51449;51.676;5.812;2023-04-08T07:41:42;102438.78;;;7.28;84.10
59104;BME280;51449;51.676;5.812;2023-04-08T07:44:04;102448.66;;;7.35;84.16
59104;BME280;51449;51.676;5.812;2023-04-08T07:46:27;102448.13;;;7.38;84.43
59104;BME280;51449;51.676;5.812;2023-04-08T07:48:49;102450.59;;;7.44;85.00
59104;BME280;51449;51.676;5.812;2023-04-08T07:51:11;102457.16;;;7.48;84.44
59104;BME280;51449;51.676;5.812;2023-04-08T07:53:33;102453.06;;;7.51;84.35
59104;BME280;51449;51.676;5.812;2023-04-08T07:55:55;102447.03;;;7.54;84.48
59104;BME280;51449;51.676;5.812;2023-04-08T07:58:18;102450.03;;;7.63;85.24
59104;BME280;51449;51.676;5.812;2023-04-08T08:00:40;102448.41;;;7.72;85.26
59104;BME280;51449;51.676;5.812;2023-04-08T08:03:01;102455.00;;;7.81;85.07
59104;BME280;51449;51.676;5.812;2023-04-08T08:05:24;102458.81;;;7.80;84.50
59104;BME280;51449;51.676;5.812;2023-04-08T08:07:45;102456.63;;;7.77;84.33
59104;BME280;51449;51.676;5.812;2023-04-08T08:10:08;102461.88;;;7.74;83.65
59104;BME280;51449;51.676;5.812;2023-04-08T08:12:30;102455.81;;;7.71;83.57
59104;BME280;51449;51.676;5.812;2023-04-08T08:14:52;102471.47;;;7.71;83.68
59104;BME280;51449;51.676;5.812;2023-04-08T08:17:15;102463.78;;;7.73;83.56
59104;BME280;51449;51.676;5.812;2023-04-08T08:19:37;102471.16;;;7.78;83.90
59104;BME280;51449;51.676;5.812;2023-04-08T08:21:58;102473.38;;;7.86;84.10
59104;BME280;51449;51.676;5.812;2023-04-08T08:24:20;102480.25;;;7.88;84.07
59104;BME280;51449;51.676;5.812;2023-04-08T08:26:43;102476.69;;;7.93;84.01
59104;BME280;51449;51.676;5.812;2023-04-08T08:29:06;102484.91;;;7.98;83.97
59104;BME280;51449;51.676;5.812;2023-04-08T08:31:29;102485.16;;;8.07;83.85
59104;BME280;51449;51.676;5.812;2023-04-08T08:33:51;102486.00;;;8.12;83.46
59104;BME280;51449;51.676;5.812;2023-04-08T08:36:13;102490.09;;;8.20;83.84
59104;BME280;51449;51.676;5.812;2023-04-08T08:38:35;102487.09;;;8.27;83.61
59104;BME280;51449;51.676;5.812;2023-04-08T08:40:58;102492.00;;;8.30;83.34
59104;BME280;51449;51.676;5.812;2023-04-08T08:43:23;102492.28;;;8.28;82.52
59104;BME280;51449;51.676;5.812;2023-04-08T08:45:46;102486.53;;;8.30;83.06
59104;BME280;51449;51.676;5.812;2023-04-08T08:48:08;102491.19;;;8.34;82.28
59104;BME280;51449;51.676;5.812;2023-04-08T08:50:31;102481.81;;;8.35;82.35
59104;BME280;51449;51.676;5.812;2023-04-08T08:52:53;102492.84;;;8.41;82.41
59104;BME280;51449;51.676;5.812;2023-04-08T08:55:20;102495.28;;;8.47;82.60
59104;BME280;51449;51.676;5.812;2023-04-08T08:58:02;102491.69;;;8.57;82.11
59104;BME280;51449;51.676;5.812;2023-04-08T09:00:36;102493.03;;;8.65;82.45
59104;BME280;51449;51.676;5.812;2023-04-08T09:03:23;102488.66;;;8.69;82.34
59104;BME280;51449;51.676;5.812;2023-04-08T09:10:54;102504.00;;;8.85;81.75
59104;BME280;51449;51.676;5.812;2023-04-08T09:13:17;102509.72;;;8.89;81.38
59104;BME280;51449;51.676;5.812;2023-04-08T09:16:00;102522.03;;;9.02;81.03
59104;BME280;51449;51.676;5.812;2023-04-08T09:18:32;102517.38;;;9.07;81.17
59104;BME280;51449;51.676;5.812;2023-04-08T09:20:54;102514.84;;;9.16;81.13
59104;BME280;51449;51.676;5.812;2023-04-08T09:23:16;102516.44;;;9.27;81.20
59104;BME280;51449;51.676;5.812;2023-04-08T09:25:38;102515.56;;;9.37;80.83
59104;BME280;51449;51.676;5.812;2023-04-08T09:28:01;102525.69;;;9.47;79.95
59104;BME280;51449;51.676;5.812;2023-04-08T09:30:24;102524.81;;;9.56;79.66
59104;BME280;51449;51.676;5.812;2023-04-08T09:32:56;102522.81;;;9.62;79.21
59104;BME280;51449;51.676;5.812;2023-04-08T09:35:19;102533.03;;;9.61;78.68
59104;BME280;51449;51.676;5.812;2023-04-08T09:37:42;102531.03;;;9.67;78.43
59104;BME280;51449;51.676;5.812;2023-04-08T09:40:04;102535.16;;;9.70;78.47
59104;BME280;51449;51.676;5.812;2023-04-08T09:42:28;102533.69;;;9.82;78.39
59104;BME280;51449;51.676;5.812;2023-04-08T09:44:52;102535.97;;;10.04;78.73
59104;BME280;51449;51.676;5.812;2023-04-08T09:47:22;102525.88;;;10.34;78.80
59104;BME280;51449;51.676;5.812;2023-04-08T09:49:54;102532.50;;;10.57;78.39
59104;BME280;51449;51.676;5.812;2023-04-08T09:55:03;102531.19;;;10.79;75.41
59104;BME280;51449;51.676;5.812;2023-04-08T09:57:53;102526.88;;;10.91;75.98
59104;BME280;51449;51.676;5.812;2023-04-08T10:00:21;102524.56;;;11.23;75.93
59104;BME280;51449;51.676;5.812;2023-04-08T10:03:21;102510.19;;;11.45;73.52
59104;BME280;51449;51.676;5.812;2023-04-08T10:06:10;102507.72;;;11.43;72.83
59104;BME280;51449;51.676;5.812;2023-04-08T10:08:33;102508.16;;;11.50;72.85
59104;BME280;51449;51.676;5.812;2023-04-08T10:10:56;102502.56;;;11.55;73.08
59104;BME280;51449;51.676;5.812;2023-04-08T10:13:18;102503.00;;;11.63;73.02
59104;BME280;51449;51.676;5.812;2023-04-08T10:15:42;102506.03;;;11.80;72.74
59104;BME280;51449;51.676;5.812;2023-04-08T10:23:00;102501.19;;;12.10;70.19
59104;BME280;51449;51.676;5.812;2023-04-08T10:25:29;102503.84;;;12.15;70.86
59104;BME280;51449;51.676;5.812;2023-04-08T10:27:53;102503.06;;;12.28;70.34
59104;BME280;51449;51.676;5.812;2023-04-08T10:32:49;102494.47;;;12.57;69.99
59104;BME280;51449;51.676;5.812;2023-04-08T10:35:11;102503.19;;;12.64;68.40
59104;BME280;51449;51.676;5.812;2023-04-08T10:37:33;102492.53;;;12.58;68.03
59104;BME280;51449;51.676;5.812;2023-04-08T10:39:55;102496.22;;;12.67;68.46
59104;BME280;51449;51.676;5.812;2023-04-08T10:42:17;102490.81;;;12.76;67.92
59104;BME280;51449;51.676;5.812;2023-04-08T10:44:43;102494.00;;;12.83;67.52
59104;BME280;51449;51.676;5.812;2023-04-08T10:47:07;102491.81;;;12.94;68.27
59104;BME280;51449;51.676;5.812;2023-04-08T10:49:33;102494.75;;;13.11;67.93
59104;BME280;51449;51.676;5.812;2023-04-08T10:51:56;102492.78;;;13.25;67.72
59104;BME280;51449;51.676;5.812;2023-04-08T10:54:18;102491.97;;;13.25;65.90
59104;BME280;51449;51.676;5.812;2023-04-08T10:56:51;102493.22;;;13.33;66.84
59104;BME280;51449;51.676;5.812;2023-04-08T10:59:16;102484.53;;;13.48;66.52
59104;BME280;51449;51.676;5.812;2023-04-08T11:01:48;102484.34;;;13.58;64.62
59104;BME280;51449;51.676;5.812;2023-04-08T11:04:15;102488.59;;;13.64;64.75
59104;BME280;51449;51.676;5.812;2023-04-08T11:06:43;102486.72;;;13.74;64.45
59104;BME280;51449;51.676;5.812;2023-04-08T11:09:08;102486.28;;;13.80;64.76
59104;BME280;51449;51.676;5.812;2023-04-08T11:11:30;102485.69;;;13.92;64.19
59104;BME280;51449;51.676;5.812;2023-04-08T11:13:52;102482.69;;;14.02;62.91
59104;BME280;51449;51.676;5.812;2023-04-08T11:16:19;102482.84;;;14.06;62.25
59104;BME280;51449;51.676;5.812;2023-04-08T11:18:42;102475.41;;;14.15;62.56
59104;BME280;51449;51.676;5.812;2023-04-08T11:21:08;102473.53;;;14.24;60.90
59104;BME280;51449;51.676;5.812;2023-04-08T11:23:31;102470.25;;;14.31;61.04
59104;BME280;51449;51.676;5.812;2023-04-08T11:25:54;102473.09;;;14.48;60.94
59104;BME280;51449;51.676;5.812;2023-04-08T11:28:17;102474.84;;;14.67;60.91
59104;BME280;51449;51.676;5.812;2023-04-08T11:30:40;102468.56;;;14.92;61.41
59104;BME280;51449;51.676;5.812;2023-04-08T11:33:04;102463.69;;;15.07;59.62
59104;BME280;51449;51.676;5.812;2023-04-08T11:35:29;102465.34;;;15.08;57.12
59104;BME280;51449;51.676;5.812;2023-04-08T11:37:54;102459.94;;;15.03;54.85
59104;BME280;51449;51.676;5.812;2023-04-08T11:40:20;102474.81;;;15.15;56.01
59104;BME280;51449;51.676;5.812;2023-04-08T11:42:43;102465.00;;;15.35;55.71
59104;BME280;51449;51.676;5.812;2023-04-08T11:45:11;102472.53;;;15.35;54.85
59104;BME280;51449;51.676;5.812;2023-04-08T11:47:34;102465.66;;;15.15;52.87
59104;BME280;51449;51.676;5.812;2023-04-08T11:49:57;102457.31;;;15.06;54.40
59104;BME280;51449;51.676;5.812;2023-04-08T11:52:20;102464.50;;;15.16;55.53
59104;BME280;51449;51.676;5.812;2023-04-08T11:54:43;102457.69;;;15.22;53.55
59104;BME280;51449;51.676;5.812;2023-04-08T11:57:04;102460.94;;;15.24;53.55
59104;BME280;51449;51.676;5.812;2023-04-08T11:59:26;102465.66;;;15.24;50.60
59104;BME280;51449;51.676;5.812;2023-04-08T12:01:51;102476.09;;;15.09;51.34
59104;BME280;51449;51.676;5.812;2023-04-08T12:04:14;102471.50;;;14.96;50.31
59104;BME280;51449;51.676;5.812;2023-04-08T12:06:36;102471.66;;;14.91;50.99
59104;BME280;51449;51.676;5.812;2023-04-08T12:08:58;102474.59;;;14.86;50.54
59104;BME280;51449;51.676;5.812;2023-04-08T12:11:21;102473.91;;;14.80;51.26
59104;BME280;51449;51.676;5.812;2023-04-08T12:13:44;102482.88;;;14.68;49.92
59104;BME280;51449;51.676;5.812;2023-04-08T12:16:06;102474.94;;;14.53;50.62
59104;BME280;51449;51.676;5.812;2023-04-08T12:18:28;102472.00;;;14.49;51.34
59104;BME280;51449;51.676;5.812;2023-04-08T12:20:50;102483.09;;;14.49;50.16
59104;BME280;51449;51.676;5.812;2023-04-08T12:23:12;102471.63;;;14.42;49.83
59104;BME280;51449;51.676;5.812;2023-04-08T12:25:35;102470.47;;;14.43;49.97
59104;BME280;51449;51.676;5.812;2023-04-08T12:27:57;102463.47;;;14.46;50.07
59104;BME280;51449;51.676;5.812;2023-04-08T12:30:18;102464.63;;;14.45;49.04
59104;BME280;51449;51.676;5.812;2023-04-08T12:32:41;102464.31;;;14.46;49.59
59104;BME280;51449;51.676;5.812;2023-04-08T12:35:07;102467.69;;;14.34;45.69
59104;BME280;51449;51.676;5.812;2023-04-08T12:37:29;102466.31;;;14.23;46.27
59104;BME280;51449;51.676;5.812;2023-04-08T12:39:51;102474.63;;;14.23;46.60
59104;BME280;51449;51.676;5.812;2023-04-08T12:42:13;102467.28;;;14.19;47.08
59104;BME280;51449;51.676;5.812;2023-04-08T12:44:35;102469.44;;;14.22;49.08
59104;BME280;51449;51.676;5.812;2023-04-08T12:46:57;102471.22;;;14.26;49.01
59104;BME280;51449;51.676;5.812;2023-04-08T12:49:19;102469.16;;;14.32;49.15
59104;BME280;51449;51.676;5.812;2023-04-08T12:51:42;102468.66;;;14.39;49.01
59104;BME280;51449;51.676;5.812;2023-04-08T12:54:03;102478.50;;;14.45;49.77
59104;BME280;51449;51.676;5.812;2023-04-08T12:56:26;102467.56;;;14.48;49.61
59104;BME280;51449;51.676;5.812;2023-04-08T12:58:48;102471.00;;;14.45;48.33
59104;BME280;51449;51.676;5.812;2023-04-08T13:01:10;102467.09;;;14.46;48.76
59104;BME280;51449;51.676;5.812;2023-04-08T13:03:33;102470.84;;;14.50;47.96